Time;durP1;ratioP1;P1;durP2;ratioP2;P2;SDS_P1;SDS_P2;PMS_P1;PMS_P2;Temp;Humidity;BMP_temperature;BMP_pressure;BME280_temperature;BME280_humidity;BME280_pressure;Samples;Min_cycle;Max_cycle;Signal;HPM_P1;HPM_P2
2022/10/18 00:01:24;;;;;;;3.20;2.87;;;;;;;15.33;94.53;102427.22;6071406;29;20227;-69
2022/10/18 00:04:45;;;;;;;4.63;3.03;;;;;;;15.28;95.08;102435.75;6072757;29;20245;-68
2022/10/18 00:08:06;;;;;;;3.80;3.40;;;;;;;15.32;94.73;102433.63;6086755;29;20240;-69
2022/10/18 00:11:27;;;;;;;3.63;3.27;;;;;;;15.28;94.49;102435.75;6057590;29;20237;-68
2022/10/18 00:14:50;;;;;;;4.87;4.33;;;;;;;15.25;94.74;102433.28;6063707;29;20236;-68
2022/10/18 00:18:11;;;;;;;4.10;3.80;;;;;;;15.27;94.73;102430.44;6090722;29;20960;-68
2022/10/18 00:21:32;;;;;;;4.17;3.73;;;;;;;15.21;95.29;102427.25;6092182;29;20609;-69
2022/10/18 00:24:53;;;;;;;5.77;4.80;;;;;;;15.21;95.03;102439.94;6065499;29;20270;-68
2022/10/18 00:28:14;;;;;;;5.43;4.00;;;;;;;15.17;95.79;102444.78;6083019;29;20260;-68
2022/10/18 00:31:37;;;;;;;6.00;4.60;;;;;;;15.11;95.46;102450.75;6083357;29;20237;-68
2022/10/18 00:34:58;;;;;;;4.10;3.40;;;;;;;15.10;95.42;102445.44;6080956;28;20260;-67
2022/10/18 00:38:19;;;;;;;7.33;4.67;;;;;;;15.19;95.02;102441.94;6086541;29;20508;-69
2022/10/18 00:41:40;;;;;;;3.70;3.33;;;;;;;15.19;94.82;102456.41;6093833;28;20236;-68
2022/10/18 00:45:07;;;;;;;5.40;4.90;;;;;;;15.11;95.64;102458.88;6076933;28;20231;-68
2022/10/18 00:48:29;;;;;;;6.60;4.10;;;;;;;15.06;95.67;102466.53;6088157;29;20229;-68
2022/10/18 00:51:55;;;;;;;6.17;4.40;;;;;;;15.07;95.78;102461.97;6081065;29;20237;-68
2022/10/18 00:55:17;;;;;;;5.63;4.63;;;;;;;15.06;95.85;102477.41;6083078;29;20244;-68
2022/10/18 00:58:38;;;;;;;6.40;4.00;;;;;;;15.04;95.54;102465.81;6087398;29;20236;-68
2022/10/18 01:01:59;;;;;;;5.07;4.10;;;;;;;15.03;95.79;102453.22;6081725;29;20240;-68
2022/10/18 01:05:22;;;;;;;6.23;3.83;;;;;;;14.93;96.42;102454.97;6071176;29;20693;-69
2022/10/18 01:08:54;;;;;;;4.30;3.07;;;;;;;14.98;96.12;102443.72;6077289;29;20240;-68
2022/10/18 01:12:24;;;;;;;5.20;4.13;;;;;;;14.94;95.58;102462.13;6075300;28;20634;-69
2022/10/18 01:15:54;;;;;;;5.87;5.13;;;;;;;14.95;95.68;102452.13;6089296;28;20241;-68
2022/10/18 01:19:39;;;;;;;4.93;4.43;;;;;;;14.94;95.54;102455.81;6070394;28;20237;-69
2022/10/18 01:23:06;;;;;;;9.13;5.27;;;;;;;14.91;95.52;102456.09;6090969;29;20225;-67
2022/10/18 01:26:47;;;;;;;6.27;4.20;;;;;;;14.95;95.05;102457.56;6078233;29;20260;-68
2022/10/18 01:30:42;;;;;;;5.47;4.37;;;;;;;14.85;96.07;102456.59;6070073;29;20236;-69
2022/10/18 01:34:07;;;;;;;8.23;4.83;;;;;;;14.83;96.27;102461.28;6070870;29;20240;-68
2022/10/18 01:37:31;;;;;;;7.73;4.70;;;;;;;14.82;96.18;102468.56;6087991;29;20240;-68
2022/10/18 01:40:54;;;;;;;8.00;4.67;;;;;;;14.83;95.59;102462.13;6067255;29;20338;-68
2022/10/18 01:44:20;;;;;;;8.37;5.47;;;;;;;14.77;95.98;102456.34;6075024;28;20311;-69
2022/10/18 01:47:46;;;;;;;7.07;5.70;;;;;;;14.77;95.59;102464.50;6076554;29;20244;-68
2022/10/18 01:51:07;;;;;;;8.13;5.20;;;;;;;14.79;95.35;102467.94;6086486;28;20343;-68
2022/10/18 01:54:31;;;;;;;7.17;5.03;;;;;;;14.79;95.00;102470.66;6072112;29;20237;-68
2022/10/18 01:58:01;;;;;;;5.77;4.73;;;;;;;14.75;95.33;102469.19;6085763;29;20232;-69
2022/10/18 02:01:31;;;;;;;7.27;5.60;;;;;;;14.80;95.24;102472.38;6085676;28;20326;-68
2022/10/18 02:05:02;;;;;;;9.07;5.23;;;;;;;14.78;94.91;102480.66;6077988;28;20229;-68
2022/10/18 02:08:28;;;;;;;7.37;5.63;;;;;;;14.83;94.98;102480.28;6057407;29;20914;-68
2022/10/18 02:11:52;;;;;;;6.50;5.03;;;;;;;14.80;95.36;102477.81;6073198;28;20238;-68
2022/10/18 02:15:16;;;;;;;5.93;5.40;;;;;;;14.75;95.65;102470.03;6066580;29;20232;-68
2022/10/18 02:18:41;;;;;;;6.03;5.43;;;;;;;14.74;95.94;102464.72;6079794;29;20255;-68
2022/10/18 02:22:04;;;;;;;7.23;5.70;;;;;;;14.71;96.09;102473.09;6080525;29;20237;-68
2022/10/18 02:25:30;;;;;;;9.93;5.53;;;;;;;14.77;95.72;102462.63;6065990;29;20232;-68
2022/10/18 02:28:51;;;;;;;8.67;5.87;;;;;;;14.78;95.16;102463.50;6086131;29;20578;-69
2022/10/18 02:32:19;;;;;;;7.33;5.77;;;;;;;14.67;96.13;102455.34;6075179;29;20243;-69
2022/10/18 02:35:45;;;;;;;10.60;7.17;;;;;;;14.73;95.77;102453.00;6088159;28;20233;-67
2022/10/18 02:39:13;;;;;;;8.57;4.93;;;;;;;14.71;95.41;102457.69;6084169;29;20252;-69
2022/10/18 02:42:35;;;;;;;6.37;4.87;;;;;;;14.80;95.04;102464.22;6073543;29;20233;-68
2022/10/18 02:45:56;;;;;;;9.27;5.87;;;;;;;14.86;94.58;102455.59;6081380;28;20236;-67
2022/10/18 02:49:17;;;;;;;7.60;5.27;;;;;;;14.89;94.66;102458.94;6070652;28;20282;-69
2022/10/18 02:52:38;;;;;;;9.77;5.97;;;;;;;14.97;93.98;102459.16;6078581;29;20236;-68
2022/10/18 02:56:02;;;;;;;6.23;5.63;;;;;;;15.00;93.86;102471.59;6082008;29;20371;-68
2022/10/18 02:59:22;;;;;;;6.03;5.47;;;;;;;15.09;93.68;102460.88;6066882;28;20271;-68
2022/10/18 03:02:43;;;;;;;7.27;6.07;;;;;;;14.97;94.01;102469.16;6079108;29;20782;-68
2022/10/18 03:06:04;;;;;;;8.53;5.73;;;;;;;14.97;94.10;102464.59;6074165;28;20231;-69
2022/10/18 03:09:25;;;;;;;8.90;6.17;;;;;;;15.04;93.99;102454.09;6041905;28;20241;-68
2022/10/18 03:12:47;;;;;;;10.63;6.57;;;;;;;14.85;94.73;102462.84;6090304;29;20753;-68
2022/10/18 03:16:08;;;;;;;10.47;6.67;;;;;;;14.79;95.04;102448.94;6064432;29;20256;-67
2022/10/18 03:19:29;;;;;;;7.13;5.57;;;;;;;14.71;95.11;102441.41;6069289;29;20253;-67
2022/10/18 03:22:50;;;;;;;7.40;5.23;;;;;;;14.65;95.81;102436.47;6089796;29;20240;-68
2022/10/18 03:26:11;;;;;;;9.90;6.00;;;;;;;14.64;95.33;102437.47;6088120;29;20239;-68
2022/10/18 03:29:33;;;;;;;7.03;6.33;;;;;;;14.60;95.60;102440.56;6073437;29;21344;-68
2022/10/18 03:32:54;;;;;;;8.80;7.67;;;;;;;14.62;95.77;102438.59;6088221;29;20696;-68
2022/10/18 03:36:15;;;;;;;11.10;5.87;;;;;;;14.69;95.54;102439.78;6086141;29;20235;-68
2022/10/18 03:39:35;;;;;;;6.77;4.63;;;;;;;14.65;94.85;102441.03;6069662;29;20637;-68
2022/10/18 03:42:57;;;;;;;9.37;5.57;;;;;;;14.74;94.79;102445.72;6069641;29;20232;-69
2022/10/18 03:46:19;;;;;;;6.57;5.13;;;;;;;14.69;94.62;102439.78;6077093;29;20232;-68
2022/10/18 03:49:39;;;;;;;8.17;5.53;;;;;;;14.49;95.73;102446.84;6077677;29;20236;-68
2022/10/18 03:53:00;;;;;;;8.37;5.73;;;;;;;14.47;95.83;102445.25;6096136;28;20373;-69
2022/10/18 03:56:21;;;;;;;6.50;5.77;;;;;;;14.56;95.65;102430.94;6084979;28;20244;-67
2022/10/18 03:59:42;;;;;;;6.60;5.83;;;;;;;14.56;95.39;102436.38;6073693;28;20326;-68
2022/10/18 04:03:04;;;;;;;10.40;5.53;;;;;;;14.60;94.99;102437.84;6091663;29;20232;-68
2022/10/18 04:06:25;;;;;;;8.30;7.40;;;;;;;14.69;94.43;102442.50;6086189;28;20232;-68
2022/10/18 04:09:46;;;;;;;8.13;5.60;;;;;;;14.60;94.82;102432.41;6079564;29;20232;-68
2022/10/18 04:13:07;;;;;;;8.17;6.97;;;;;;;14.58;94.65;102431.69;6088917;28;20233;-68
2022/10/18 04:16:28;;;;;;;11.47;7.67;;;;;;;14.51;94.76;102428.59;6087482;29;20618;-68
2022/10/18 04:19:51;;;;;;;10.10;5.73;;;;;;;14.46;94.79;102428.09;6061366;29;20227;-69
2022/10/18 04:23:12;;;;;;;10.60;7.10;;;;;;;14.48;95.15;102427.97;6085765;29;20236;-68
2022/10/18 04:26:32;;;;;;;7.77;6.60;;;;;;;14.53;94.64;102439.31;6082620;29;21252;-67
2022/10/18 04:29:53;;;;;;;9.53;6.57;;;;;;;14.57;94.29;102425.38;6071180;28;20240;-67
2022/10/18 04:33:14;;;;;;;11.03;6.43;;;;;;;14.56;94.32;102425.50;6084703;29;20596;-68
2022/10/18 04:36:36;;;;;;;8.27;5.73;;;;;;;14.57;94.30;102424.50;6084334;29;20232;-68
2022/10/18 04:39:57;;;;;;;8.73;6.67;;;;;;;14.52;94.16;102419.44;6079463;29;20229;-68
2022/10/18 04:43:17;;;;;;;19.87;10.37;;;;;;;14.49;95.08;102418.84;6085947;29;20232;-68
2022/10/18 04:46:38;;;;;;;10.20;8.37;;;;;;;14.47;94.69;102418.97;6088014;29;20228;-67
2022/10/18 04:49:59;;;;;;;8.87;6.13;;;;;;;14.37;95.16;102426.97;6077362;29;20320;-68
2022/10/18 04:53:21;;;;;;;10.20;7.63;;;;;;;14.34;95.33;102421.81;6093867;28;20237;-68
2022/10/18 04:56:42;;;;;;;7.03;5.13;;;;;;;14.40;94.97;102418.59;6086433;29;20244;-68
2022/10/18 05:00:04;;;;;;;8.97;6.47;;;;;;;14.50;94.76;102432.28;6073107;29;20260;-68
2022/10/18 05:03:25;;;;;;;10.43;7.10;;;;;;;14.49;94.61;102433.28;6050135;28;20233;-67
2022/10/18 05:06:47;;;;;;;10.23;7.03;;;;;;;14.53;94.19;102436.59;6061881;28;20507;-68
2022/10/18 05:10:09;;;;;;;9.50;8.00;;;;;;;14.51;94.44;102428.59;6076395;29;20228;-68
2022/10/18 05:13:30;;;;;;;9.00;5.83;;;;;;;14.54;94.42;102424.78;6073666;29;20240;-66
2022/10/18 05:16:51;;;;;;;12.00;7.73;;;;;;;14.49;94.39;102421.56;6074072;29;20236;-67
2022/10/18 05:20:12;;;;;;;7.37;6.67;;;;;;;14.48;94.64;102417.13;6076626;29;20240;-68
2022/10/18 05:23:33;;;;;;;10.73;7.57;;;;;;;14.39;95.28;102414.13;6094140;28;20801;-68
2022/10/18 05:26:56;;;;;;;7.97;6.93;;;;;;;14.43;95.05;102417.50;6080144;29;20615;-67
2022/10/18 05:30:17;;;;;;;8.93;6.90;;;;;;;14.51;94.77;102425.00;6054539;28;20649;-68
2022/10/18 05:33:38;;;;;;;11.67;7.77;;;;;;;14.35;94.97;102434.38;6060884;28;20632;-67
2022/10/18 05:36:59;;;;;;;12.80;7.50;;;;;;;14.37;94.35;102431.56;6081427;29;20505;-68
2022/10/18 05:40:20;;;;;;;12.23;7.10;;;;;;;14.24;95.31;102437.06;6076832;29;20618;-67
2022/10/18 05:43:42;;;;;;;11.53;7.87;;;;;;;14.12;95.03;102442.59;6089715;28;20232;-68
2022/10/18 05:47:03;;;;;;;9.87;7.40;;;;;;;14.03;95.67;102441.47;6080524;28;20232;-67
2022/10/18 05:50:24;;;;;;;7.60;6.30;;;;;;;14.14;95.98;102446.88;6076194;29;20243;-68
2022/10/18 05:53:44;;;;;;;18.37;7.60;;;;;;;14.22;95.43;102433.59;6084145;29;20249;-68
2022/10/18 05:57:05;;;;;;;12.30;8.20;;;;;;;13.98;95.82;102437.34;6068016;29;20238;-69
2022/10/18 06:00:28;;;;;;;8.53;6.73;;;;;;;14.10;95.27;102439.97;6064464;29;20237;-68
2022/10/18 06:03:57;;;;;;;11.17;7.67;;;;;;;14.20;94.29;102443.72;6069051;29;20233;-68
2022/10/18 06:07:18;;;;;;;9.57;7.70;;;;;;;14.27;94.19;102452.19;6048690;29;20937;-67
2022/10/18 06:10:39;;;;;;;10.60;8.03;;;;;;;14.06;94.17;102464.78;6069978;29;20247;-68
2022/10/18 06:14:00;;;;;;;12.90;7.67;;;;;;;13.98;95.00;102467.19;6057351;29;20781;-66
2022/10/18 06:17:23;;;;;;;8.43;6.50;;;;;;;14.14;93.90;102467.75;6078101;29;20391;-67
2022/10/18 06:20:44;;;;;;;14.93;6.67;;;;;;;14.04;94.21;102464.88;6079447;28;20701;-67
2022/10/18 06:24:05;;;;;;;10.40;6.90;;;;;;;14.16;93.52;102461.19;6048379;28;20271;-67
2022/10/18 06:27:26;;;;;;;12.00;7.67;;;;;;;14.12;93.24;102459.69;6084065;29;20319;-67
2022/10/18 06:30:47;;;;;;;10.23;6.40;;;;;;;14.10;92.75;102450.81;6092448;29;20235;-68
2022/10/18 06:34:09;;;;;;;11.97;7.53;;;;;;;14.01;92.77;102451.56;6090858;29;20646;-67
2022/10/18 06:37:30;;;;;;;11.93;7.20;;;;;;;14.05;92.60;102458.47;6080460;29;20248;-67
2022/10/18 06:40:51;;;;;;;11.17;7.27;;;;;;;13.82;93.48;102455.81;6088188;29;20256;-67
2022/10/18 06:44:13;;;;;;;6.17;5.07;;;;;;;14.01;93.22;102454.28;6068796;29;20543;-68
2022/10/18 06:47:34;;;;;;;11.87;6.33;;;;;;;14.18;92.03;102456.53;6077100;28;20225;-67
2022/10/18 06:50:58;;;;;;;11.13;7.33;;;;;;;14.21;92.09;102463.53;6070983;29;20229;-66
2022/10/18 06:54:19;;;;;;;9.83;6.17;;;;;;;14.26;91.29;102474.91;6046741;28;20238;-66
2022/10/18 06:57:40;;;;;;;8.67;5.47;;;;;;;14.42;90.67;102480.88;6081632;28;20666;-67
2022/10/18 07:01:06;;;;;;;10.27;5.53;;;;;;;14.47;90.79;102488.66;6094508;28;20223;-67
2022/10/18 07:04:29;;;;;;;7.87;6.57;;;;;;;14.51;89.99;102488.28;6061131;29;20238;-67
2022/10/18 07:07:51;;;;;;;9.97;6.53;;;;;;;14.41;89.04;102485.44;6080955;28;20232;-67
2022/10/18 07:11:14;;;;;;;7.97;5.03;;;;;;;14.31;89.39;102500.72;6094839;29;20236;-66
2022/10/18 07:14:35;;;;;;;6.30;4.83;;;;;;;14.36;89.19;102509.38;6078720;29;20278;-67
2022/10/18 07:17:56;;;;;;;8.13;5.27;;;;;;;14.30;89.46;102514.41;6063261;29;20241;-67
2022/10/18 07:21:18;;;;;;;5.37;4.73;;;;;;;14.36;89.08;102506.66;6083608;29;20236;-67
2022/10/18 07:24:40;;;;;;;11.40;5.70;;;;;;;14.49;88.87;102513.81;6061331;28;20272;-68
2022/10/18 07:28:02;;;;;;;6.70;5.77;;;;;;;14.56;88.48;102520.50;6068072;29;20230;-67
2022/10/18 07:31:23;;;;;;;9.43;4.17;;;;;;;14.66;88.50;102518.78;6072058;29;20235;-67
2022/10/18 07:34:44;;;;;;;11.63;5.77;;;;;;;14.46;89.31;102533.06;6081101;29;20248;-67
2022/10/18 07:38:05;;;;;;;7.83;4.80;;;;;;;14.30;90.09;102525.25;6096316;28;20518;-67
2022/10/18 07:41:27;;;;;;;5.93;5.17;;;;;;;14.12;90.74;102524.78;6083220;28;20685;-66
2022/10/18 07:44:48;;;;;;;12.93;6.37;;;;;;;14.18;90.66;102516.22;6076698;29;20315;-67
2022/10/18 07:48:09;;;;;;;6.70;5.80;;;;;;;14.37;90.04;102537.38;6083327;29;20229;-68
2022/10/18 07:51:31;;;;;;;10.90;5.77;;;;;;;14.15;90.89;102524.56;6086809;29;20228;-67
2022/10/18 07:54:52;;;;;;;8.30;5.40;;;;;;;14.27;90.57;102534.47;6078577;29;20233;-68
2022/10/18 07:58:14;;;;;;;10.87;5.93;;;;;;;13.92;90.80;102528.19;6088982;29;20236;-67
2022/10/18 08:01:35;;;;;;;7.97;4.17;;;;;;;14.19;90.04;102526.06;6080705;29;20232;-66
2022/10/18 08:04:56;;;;;;;5.60;5.03;;;;;;;14.19;90.39;102531.50;6073501;29;20315;-67
2022/10/18 08:08:17;;;;;;;6.33;5.17;;;;;;;14.40;88.96;102523.56;6090417;29;20624;-66
2022/10/18 08:11:38;;;;;;;8.17;5.80;;;;;;;14.15;89.60;102530.00;6069780;29;20327;-67
2022/10/18 08:15:01;;;;;;;7.47;5.20;;;;;;;14.39;88.46;102522.69;6086768;29;20309;-67
2022/10/18 08:18:21;;;;;;;10.77;4.80;;;;;;;14.32;88.88;102524.16;6102853;29;20255;-66
2022/10/18 08:21:42;;;;;;;6.83;5.60;;;;;;;14.34;88.87;102524.03;6088260;29;20584;-67
2022/10/18 08:25:04;;;;;;;6.20;4.03;;;;;;;14.52;88.09;102527.16;6086111;29;20502;-67
2022/10/18 08:28:25;;;;;;;7.53;5.50;;;;;;;14.60;87.05;102533.72;6091459;29;20261;-66
2022/10/18 08:31:49;;;;;;;17.57;7.60;;;;;;;14.29;88.36;102529.81;6090457;29;20236;-67
2022/10/18 08:35:10;;;;;;;10.43;4.37;;;;;;;14.21;88.47;102529.50;6086056;29;20236;-67
2022/10/18 08:38:31;;;;;;;13.27;6.00;;;;;;;14.04;89.77;102526.41;6094114;29;20237;-66
2022/10/18 08:42:11;;;;;;;7.43;4.63;;;;;;;14.00;89.25;102520.31;6083379;29;20233;-67
2022/10/18 08:45:37;;;;;;;6.40;5.13;;;;;;;14.36;88.30;102516.63;6086597;29;20235;-67
2022/10/18 08:49:00;;;;;;;8.77;5.30;;;;;;;14.39;86.98;102525.38;6086800;29;20224;-67
2022/10/18 08:52:32;;;;;;;7.27;5.47;;;;;;;14.73;86.35;102520.00;6086328;29;20233;-68
2022/10/18 08:55:58;;;;;;;5.40;4.40;;;;;;;14.87;85.39;102533.38;6059300;29;20522;-68
2022/10/18 08:59:19;;;;;;;10.13;4.30;;;;;;;15.17;85.27;102536.28;6076985;29;20240;-68
2022/10/18 09:02:53;;;;;;;6.07;4.80;;;;;;;15.13;84.44;102529.38;6097561;29;20630;-67
2022/10/18 09:06:22;;;;;;;9.30;5.70;;;;;;;15.08;84.87;102528.91;6074729;29;20241;-68
2022/10/18 09:09:50;;;;;;;16.00;6.23;;;;;;;15.24;84.26;102545.69;6059846;29;20236;-68
2022/10/18 09:13:37;;;;;;;6.53;5.70;;;;;;;15.59;83.39;102542.78;6082595;28;20298;-68
2022/10/18 09:17:11;;;;;;;9.07;5.90;;;;;;;16.40;79.87;102540.31;6066952;29;20343;-67
2022/10/18 09:20:37;;;;;;;11.17;5.57;;;;;;;18.29;73.00;102538.34;6079696;29;20227;-68
2022/10/18 09:24:09;;;;;;;6.88;4.63;;;;;;;19.57;68.07;102534.88;6084526;29;20244;-68
2022/10/18 09:27:40;;;;;;;5.28;4.45;;;;;;;20.22;63.15;102530.94;6078232;28;20232;-66
2022/10/18 09:31:07;;;;;;;8.23;5.97;;;;;;;22.83;54.25;102529.59;6091141;28;20237;-67
2022/10/18 09:34:36;;;;;;;8.35;3.47;;;;;;;25.62;48.83;102536.84;6078588;28;20328;-67
2022/10/18 09:38:03;;;;;;;5.35;3.70;;;;;;;27.06;43.09;102529.91;6092769;29;20231;-68
2022/10/18 09:41:28;;;;;;;4.88;3.88;;;;;;;27.58;42.21;102530.19;6090833;28;20350;-66
2022/10/18 09:44:54;;;;;;;4.28;3.10;;;;;;;30.15;37.99;102521.28;6083353;29;20618;-67
2022/10/18 09:48:21;;;;;;;7.22;3.17;;;;;;;27.81;40.29;102531.78;6084037;29;20236;-67
2022/10/18 09:51:43;;;;;;;5.80;3.85;;;;;;;27.54;40.20;102534.44;6084673;29;20669;-67
2022/10/18 09:55:13;;;;;;;9.18;3.58;;;;;;;27.21;39.92;102527.00;6082871;29;20606;-68
2022/10/18 09:58:41;;;;;;;2.72;2.53;;;;;;;28.52;37.58;102532.97;6089595;29;20681;-68
2022/10/18 10:02:03;;;;;;;4.25;3.65;;;;;;;29.59;35.99;102532.31;6075139;29;20263;-68
2022/10/18 10:05:24;;;;;;;2.75;2.47;;;;;;;30.12;33.92;102530.13;6074721;28;20499;-67
2022/10/18 10:08:53;;;;;;;4.85;3.05;;;;;;;29.24;35.62;102522.63;6063021;28;20331;-68
2022/10/18 10:12:26;;;;;;;2.75;2.40;;;;;;;29.90;34.54;102525.97;6054173;28;20237;-68
2022/10/18 10:15:53;;;;;;;5.65;2.55;;;;;;;28.08;36.31;102517.78;6082969;29;20232;-68
2022/10/18 10:19:22;;;;;;;3.80;2.58;;;;;;;24.56;44.40;102529.97;6060696;29;20240;-68
2022/10/18 10:22:46;;;;;;;4.55;3.13;;;;;;;27.64;38.43;102523.81;6079396;29;20244;-68
2022/10/18 10:26:24;;;;;;;3.92;2.25;;;;;;;28.97;35.28;102518.19;6073555;28;20231;-68
2022/10/18 10:29:52;;;;;;;4.30;3.90;;;;;;;28.85;36.12;102528.25;6050593;28;20558;-68
2022/10/18 10:36:48;;;;;;;4.93;3.33;;;;;;;26.17;41.26;102535.34;6332974;27;20333;-68
2022/10/18 10:40:20;;;;;;;4.65;3.60;;;;;;;26.16;41.50;102528.97;6298107;28;20546;-67
2022/10/18 10:43:44;;;;;;;7.35;4.15;;;;;;;27.32;38.07;102523.66;6292992;28;20222;-68
2022/10/18 10:47:05;;;;;;;3.20;2.95;;;;;;;27.37;37.84;102523.94;6298294;28;20628;-68
2022/10/18 10:50:28;;;;;;;6.82;3.67;;;;;;;28.56;36.77;102528.69;6267912;28;20297;-68
2022/10/18 10:54:11;;;;;;;7.25;3.95;;;;;;;30.38;32.02;102529.06;6308736;28;20223;-68
2022/10/18 10:57:32;;;;;;;3.38;2.40;;;;;;;29.79;33.70;102538.66;6294751;28;20738;-68
2022/10/18 11:00:56;;;;;;;4.28;3.13;;;;;;;30.96;32.81;102535.22;6294508;28;20226;-68
2022/10/18 11:04:25;;;;;;;3.17;2.10;;;;;;;29.97;32.76;102541.56;6282343;28;20243;-67
2022/10/18 11:07:46;;;;;;;3.28;2.33;;;;;;;29.00;34.24;102540.81;6304778;28;20239;-68
2022/10/18 11:11:19;;;;;;;2.55;2.35;;;;;;;30.72;31.85;102543.34;6298543;28;20222;-68
2022/10/18 11:14:45;;;;;;;5.70;3.38;;;;;;;29.12;34.27;102546.59;6294653;28;20650;-67
2022/10/18 11:18:17;;;;;;;7.05;2.85;;;;;;;30.35;31.56;102541.53;6283984;28;20227;-68
2022/10/18 11:21:38;;;;;;;3.15;2.50;;;;;;;27.32;35.77;102546.69;6303307;28;20234;-68
2022/10/18 11:25:02;;;;;;;4.43;3.25;;;;;;;24.34;41.38;102562.06;6311825;28;20541;-67
2022/10/18 11:28:34;;;;;;;3.42;2.40;;;;;;;21.15;48.85;102558.53;6322909;28;20233;-68
2022/10/18 11:32:06;;;;;;;7.82;2.58;;;;;;;21.22;51.29;102559.56;6308735;28;20881;-68
2022/10/18 11:35:39;;;;;;;4.03;2.60;;;;;;;24.12;45.13;102549.13;6321531;27;20316;-68
2022/10/18 11:39:07;;;;;;;3.88;2.53;;;;;;;27.83;35.49;102549.88;6310506;27;20222;-67
2022/10/18 11:42:33;;;;;;;2.38;2.15;;;;;;;29.65;31.96;102534.22;6325061;28;20229;-68
2022/10/18 11:46:02;;;;;;;5.63;2.05;;;;;;;29.16;32.71;102547.88;6310217;27;20578;-68
2022/10/18 11:49:37;;;;;;;5.10;2.33;;;;;;;27.06;35.64;102545.69;6282432;28;20222;-66
2022/10/18 11:53:09;;;;;;;5.15;2.92;;;;;;;29.96;31.94;102537.06;6305241;28;20218;-67
2022/10/18 11:56:36;;;;;;;4.60;2.33;;;;;;;32.05;28.96;102539.63;6284718;28;20223;-69
2022/10/18 12:00:08;;;;;;;5.47;2.05;;;;;;;32.39;28.02;102554.78;6288850;28;20226;-68
2022/10/18 12:03:45;;;;;;;4.13;1.92;;;;;;;27.78;33.67;102549.69;6299381;28;20238;-68
2022/10/18 12:07:07;;;;;;;6.72;2.38;;;;;;;24.42;40.12;102553.72;6295217;27;20223;-68
2022/10/18 12:10:32;;;;;;;6.97;3.08;;;;;;;23.80;42.18;102543.84;6294793;28;20230;-68
2022/10/18 12:13:56;;;;;;;7.20;3.50;;;;;;;22.44;45.49;102547.84;6296823;28;20230;-67
2022/10/18 12:17:22;;;;;;;6.22;2.22;;;;;;;22.95;44.01;102536.44;6298456;28;20595;-67
2022/10/18 12:20:48;;;;;;;10.85;6.18;;;;;;;21.46;48.72;102551.47;6285782;28;20234;-67
2022/10/18 12:24:17;;;;;;;4.40;2.53;;;;;;;20.64;50.61;102535.56;6295723;28;20552;-67
2022/10/18 12:27:41;;;;;;;5.15;3.10;;;;;;;20.18;52.25;102538.59;6295844;28;20255;-67
2022/10/18 12:31:08;;;;;;;10.27;3.13;;;;;;;20.15;53.61;102533.41;6299705;27;20222;-67
2022/10/18 12:34:35;;;;;;;3.83;3.40;;;;;;;21.32;50.54;102535.59;6286073;28;20317;-66
2022/10/18 12:38:15;;;;;;;3.25;2.20;;;;;;;20.82;51.55;102535.50;6311077;27;20222;-67
2022/10/18 12:41:37;;;;;;;4.47;1.63;;;;;;;20.49;49.92;102541.78;6291630;28;20223;-66
2022/10/18 12:45:02;;;;;;;3.40;1.55;;;;;;;21.09;48.09;102548.22;6293798;28;20230;-67
2022/10/18 12:48:35;;;;;;;2.60;2.03;;;;;;;20.97;47.39;102546.72;6299027;28;20230;-65
2022/10/18 12:51:58;;;;;;;3.20;1.35;;;;;;;20.42;49.33;102538.81;6285741;28;20234;-67
2022/10/18 12:55:36;;;;;;;2.53;1.52;;;;;;;20.24;49.91;102534.38;6280500;28;20231;-67
2022/10/18 12:59:48;;;;;;;7.47;2.10;;;;;;;19.94;50.97;102543.88;6288403;28;20701;-67
2022/10/18 13:03:46;;;;;;;5.38;1.95;;;;;;;20.45;50.52;102541.25;6298217;28;20369;-67
2022/10/18 13:07:21;;;;;;;3.20;2.17;;;;;;;20.46;48.62;102548.44;6284950;28;20227;-66
2022/10/18 13:10:44;;;;;;;2.75;1.42;;;;;;;20.25;49.04;102539.72;6287484;28;20697;-66
2022/10/18 13:14:24;;;;;;;3.42;1.50;;;;;;;19.89;51.33;102535.25;6291820;28;20623;-67
2022/10/18 13:17:53;;;;;;;5.47;2.45;;;;;;;19.45;52.77;102541.59;6289986;28;20227;-67
2022/10/18 13:21:23;;;;;;;4.13;2.25;;;;;;;19.16;53.91;102558.13;6303736;28;20234;-67
2022/10/18 13:25:00;;;;;;;2.75;1.40;;;;;;;18.58;55.14;102538.34;6288425;28;20222;-66
2022/10/18 13:28:30;;;;;;;3.88;2.00;;;;;;;18.40;56.24;102550.97;6300579;27;20226;-67
2022/10/18 13:31:59;;;;;;;10.48;3.72;;;;;;;17.98;57.45;102544.13;6293448;28;20230;-67
2022/10/18 13:35:53;;;;;;;3.10;1.30;;;;;;;17.91;57.57;102552.03;6285218;28;20238;-66
2022/10/18 13:39:20;;;;;;;1.02;0.93;;;;;;;17.99;58.24;102543.97;6289198;28;20230;-67
2022/10/18 13:42:42;;;;;;;2.85;0.98;;;;;;;17.88;57.88;102549.56;6289286;28;20471;-67
2022/10/18 13:46:04;;;;;;;4.90;3.03;;;;;;;17.76;57.71;102550.72;6288467;28;20226;-67
2022/10/18 13:49:36;;;;;;;2.35;1.73;;;;;;;17.81;57.10;102551.16;6279015;28;20591;-67
2022/10/18 13:53:32;;;;;;;3.33;2.38;;;;;;;17.29;58.12;102552.28;6299654;28;20230;-68
2022/10/18 13:57:10;;;;;;;1.77;1.13;;;;;;;17.55;57.06;102555.41;6298448;28;20237;-68
2022/10/18 14:00:46;;;;;;;3.25;2.20;;;;;;;17.39;57.76;102547.75;6300450;28;20231;-68
2022/10/18 14:04:46;;;;;;;2.90;2.03;;;;;;;17.21;57.91;102546.66;6303366;28;20289;-70
2022/10/18 14:08:14;;;;;;;4.63;1.67;;;;;;;17.38;58.01;102554.19;6298074;28;20230;-69
2022/10/18 14:11:39;;;;;;;1.83;1.08;;;;;;;17.09;58.74;102553.22;6299943;28;20655;-66
2022/10/18 14:15:05;;;;;;;2.03;0.90;;;;;;;17.30;57.82;102539.53;6296244;28;20230;-69
2022/10/18 14:18:32;;;;;;;2.45;1.48;;;;;;;17.08;58.29;102545.19;6295753;28;20215;-69
2022/10/18 14:21:58;;;;;;;2.15;1.05;;;;;;;17.35;57.73;102542.69;6290220;28;20227;-69
2022/10/18 14:25:21;;;;;;;1.65;1.30;;;;;;;17.61;57.83;102549.38;6295992;28;20377;-67
2022/10/18 14:28:42;;;;;;;4.13;2.90;;;;;;;18.26;55.81;102540.50;6294473;28;20234;-69
2022/10/18 14:32:09;;;;;;;1.90;1.30;;;;;;;18.01;57.06;102549.28;6295561;28;20242;-69
2022/10/18 14:35:34;;;;;;;2.55;1.35;;;;;;;18.05;57.05;102546.13;6301018;28;22671;-69
2022/10/18 14:38:57;;;;;;;4.22;1.73;;;;;;;17.64;59.04;102553.69;6287058;28;20234;-68
2022/10/18 14:42:21;;;;;;;2.67;1.42;;;;;;;17.31;60.67;102557.63;6294083;28;20601;-68
2022/10/18 14:45:42;;;;;;;2.22;1.27;;;;;;;17.86;59.95;102554.31;6289584;28;20253;-66
2022/10/18 14:49:06;;;;;;;6.13;1.67;;;;;;;17.64;59.58;102550.97;6290102;28;21581;-68
2022/10/18 14:52:31;;;;;;;3.83;1.38;;;;;;;17.41;60.59;102558.50;6291344;28;20223;-68
2022/10/18 14:55:54;;;;;;;2.65;1.30;;;;;;;17.23;61.95;102571.09;6283680;28;20346;-67
2022/10/18 14:59:20;;;;;;;2.10;1.63;;;;;;;17.07;62.95;102565.25;6282990;28;20333;-70
2022/10/18 15:02:41;;;;;;;3.55;1.38;;;;;;;16.96;63.71;102568.94;6285179;28;20231;-69
2022/10/18 15:06:06;;;;;;;3.83;1.73;;;;;;;16.89;63.74;102566.91;6291324;28;20226;-68
2022/10/18 15:09:29;;;;;;;4.27;1.47;;;;;;;16.69;64.51;102552.28;6281396;28;20565;-68
2022/10/18 15:12:51;;;;;;;2.75;1.52;;;;;;;16.58;64.10;102561.41;6291084;28;20345;-68
2022/10/18 15:16:16;;;;;;;3.60;1.20;;;;;;;16.58;64.14;102557.84;6290610;28;20239;-69
2022/10/18 15:19:41;;;;;;;6.95;2.80;;;;;;;16.61;64.06;102552.97;6278014;28;20329;-69
2022/10/18 15:23:21;;;;;;;2.15;1.25;;;;;;;16.63;64.07;102569.19;6292312;28;20235;-68
2022/10/18 15:26:45;;;;;;;3.60;1.60;;;;;;;16.50;64.53;102561.22;6297277;27;20679;-69
2022/10/18 15:30:09;;;;;;;3.15;1.08;;;;;;;16.60;64.84;102564.00;6279467;28;20249;-69
2022/10/18 15:33:33;;;;;;;2.80;1.08;;;;;;;16.60;66.20;102550.41;6290572;28;20223;-69
2022/10/18 15:36:55;;;;;;;4.80;1.17;;;;;;;16.62;67.07;102564.75;6278891;28;20254;-69
2022/10/18 15:40:19;;;;;;;2.08;1.70;;;;;;;16.54;65.95;102565.38;6273720;28;20706;-69
2022/10/18 15:43:41;;;;;;;2.75;1.17;;;;;;;16.64;65.11;102555.44;6289790;28;20231;-68
2022/10/18 15:47:19;;;;;;;2.03;1.30;;;;;;;16.53;66.42;102551.91;6276927;28;20227;-68
2022/10/18 15:50:42;;;;;;;7.15;3.22;;;;;;;16.43;65.25;102561.84;6289666;28;20797;-69
2022/10/18 15:54:03;;;;;;;2.83;2.30;;;;;;;16.39;65.84;102549.50;6290363;28;20234;-68
2022/10/18 15:57:24;;;;;;;3.75;1.50;;;;;;;16.37;65.60;102552.38;6281641;28;20238;-68